Ashkum, Illinois
Current Conditions -  °F | °C
As of 3:35 PM on Friday 19 Dec 2014 (Local Time) from KIKK Reporting Station
Overcast Overcast  
Wind Chill: 26°   Ceiling: 3100
Heat Index: 32°   Visibility: 10mi
Dew Point: 26°   Wind: 6mph
Humidity: 79%   Direction: 190°S
Pressure: 30.33"   Gusts: NA
Location:  40.88°N, 87.96°W
Report Text: KIKK 192135Z AUTO 19005KT 10SM OVC031 00/M03 A3033 RMK AO2 T00001032
Loading
Personal Weather Stations






























Interactive Weather Map New forecast layout! Learn more

10-Day Weather Forecast

Advertisements
Track Severe Weather on mobile